• vieta
  • image
  • image
  • image
mod_vvisit_countermod_vvisit_countermod_vvisit_countermod_vvisit_countermod_vvisit_countermod_vvisit_countermod_vvisit_counter
mod_vvisit_counterŠiandien695
mod_vvisit_counterVakar1017
mod_vvisit_counterŠią savaitę1712
mod_vvisit_counterPraėjusią savaitę5315
mod_vvisit_counterŠį mėnesį17512
mod_vvisit_counterPraėjusį mėnesį23031
mod_vvisit_counterViso1003469

Mes turime: 22 svečius online
Jūsų IP: 54.166.207.223
 , 
Šiandien: Spa 23, 2018
Oro uostas / Apie mus / Pagrindinės oro uosto rinkliavos

Pagrindinės oro uosto rinkliavos

Rinkliavos pavadinimas

Rinkliavos dydis

Orlaivio tūpimo Skrendant tarptautiniu ir vietiniu maršrutu
Orlaiviams, kurių MTOM mažesnė kaip 2t - 15,06 
Orlaiviams, kurių MTOM 2t ir didesnė iki 15t  - 15,06  kiekvienai orlaivio tonai.
Orlaiviams, kurių MTOM 15t ir didesnė iki 60t - 13,90 kiekvienai orlaivio tonai.
Orlaiviams, kurių MTOM 60t ir didesnė iki 101t - 12,16 € kiekvienai orlaivio tonai.
Orlaiviams, kurių MTOM 101t ir didesnė iki 171t - 11,00 € kiekvienai orlaivio tonai.
Orlaiviams, kurių MTOM 171t ir didesnė iki 200t - 9,27 € kiekvienai orlaivio tonai.
Orlaiviams, kurių MTOM 200t ir didesnė - 8,69 € kiekvienai orlaivio tonai.
Orlaivio stovėjimo 10 procentų orlaivio faktinės tūpimo rinkliavos Jeigu orlaivis stovi oro uoste trumpiau kaip 3 val., ši rinkliava neimama.
Jeigu orlaivis stovi ilgiau kaip 3 val., rinkliava skaičiuojama už parą. Orlaivių naudotojams, vežantiems krovinius užsakomaisiais reisais, ši rinkliava neimama, kai orlaivis stovi trumpiau kaip 6 val. ir jo MTOM - nuo 101 iki 170 tonų, taip pat kai orlaivis stovi trumpiau kaip 9 val. ir jo MTOM - 171 tona ir daugiau. Kai orlaivis stovi ilgiau, rinkliava skaičiuojama už visą parą.
Išvykstančio keleivio Skrendantiems tarptautiniu ir vietiniu maršrutu
5,79 
Orlaivio saugumo 10 procentų orlaivio faktinės tūpimo rinkliavos
Orlaivio palydos 17,38 

 Orlaivio tūpimo rinkliavos galioja nuo 2017 m. sausio mėn. 01 d.

Antžeminio aptarnavimo rinkliavos ir papildomų paslaugų orlaiviams ir jų įguloms įkainiai - pagal atskirą susitarimą.

Šiandien

Antradienis, 23 Spalis 2018

Orų prognozė aviacijai

[source: ADDS]
METAR
EYSA 231850Z 26012KT 9999 -SHRA BKN012 BKN019CB OVC026 06/06 Q0984 WHT NOSIG =
TAF EYSA 231711Z 2318/2403 27014KT 9000 BKN025 TEMPO 2318/2324 5000 SHRA SCT005 BKN015CB TEMPO 2400/2403 30024G34KT BKN015CB
TAF
TAF EYSA 231711Z 2318/2403 27014KT 9000 BKN025 TEMPO 2318/2324 5000 SHRA SCT005 BKN015CB TEMPO 2400/2403 30024G34KT BKN015CB =
SR / SS: 05:14 / 15:10 UTC (EYSA 2018-10-23)

Paieška

Lankytojai

Mes turime 22 svečius online

tic logo lt